Franklin, Texas
Current Conditions -  °F | °C
As of 8:15 PM on Friday 24 Oct 2014 (Local Time) from KLHB Reporting Station
Haze Haze  
Wind Chill: 70°   Ceiling: Unl
Heat Index: 70°   Visibility: 5mi
Dew Point: 61°   Wind: 0mph
Humidity: 73%   Direction: NA
Pressure: 30.12"   Gusts: NA
Location:  31.03°N, 96.49°W
Report Text: KLHB 250115Z AUTO 00000KT 5SM HZ CLR 21/16 A3012 RMK AO2 T02110161
Loading
Personal Weather Stations






























Interactive Weather Map
Tropical Storm Tracking
New forecast layout! Learn more

10-Day Weather Forecast

Advertisements
Track Severe Weather on mobile